Terminal Aerodrome Forecast
Issued by NWS Omaha/Valley, NE

Home | Current Version | Previous Version | Graphics & Text | Print | Product List | Glossary On
Versions: 1 2 3 4 5 6 7 8 9 10 11 12 13 14 15 16 17 18 19 20 21 22 23
000
FTUS43 KOAX 141020 AAB
TAFOFK
TAF AMD
KOFK 141020Z 1410/1506 09006KT P6SM VCSH OVC008
      TEMPO 1410/1413 4SM -RA BR OVC004
     FM141500 10004KT P6SM OVC005
     FM141900 27006KT P6SM OVC010
     FM142100 29010KT P6SM OVC025 PROB30 1421/1424 4SM -SHRA OVC007
     FM150000 32020G30KT P6SM BKN025 PROB30 1500/1503 4SM -SHRA
      OVC011
     FM150300 32024G32KT P6SM SCT030=

USA.gov is the U.S. government's official web portal to all federal, state and local government web resources and services.